createdAt,value
2022-11-20T00:01:42.645Z,84.10
2022-11-20T00:04:13.587Z,84.42
2022-11-20T00:06:42.304Z,83.80
2022-11-20T00:09:12.043Z,83.43
2022-11-20T00:11:40.896Z,84.06
2022-11-20T00:14:12.027Z,83.50
2022-11-20T00:16:40.795Z,83.71
2022-11-20T00:19:09.657Z,83.32
2022-11-20T00:21:38.496Z,83.19
2022-11-20T00:24:07.670Z,83.33
2022-11-20T00:26:36.508Z,82.88
2022-11-20T00:29:05.595Z,82.95
2022-11-20T00:31:35.028Z,83.19
2022-11-20T00:34:03.897Z,82.97
2022-11-20T00:36:35.652Z,83.09
2022-11-20T00:39:04.764Z,82.90
2022-11-20T00:41:34.235Z,83.30
2022-11-20T00:44:03.246Z,83.04
2022-11-20T00:46:32.146Z,82.71
2022-11-20T00:49:00.939Z,83.30
2022-11-20T00:51:30.014Z,83.23
2022-11-20T00:54:01.561Z,83.18
2022-11-20T00:56:30.513Z,83.21
2022-11-20T00:59:01.754Z,83.16
2022-11-20T01:01:31.316Z,83.05
2022-11-20T01:04:02.039Z,83.24
2022-11-20T01:06:33.430Z,83.59
2022-11-20T01:09:05.528Z,83.40
2022-11-20T01:11:38.734Z,82.90
2022-11-20T01:14:11.465Z,82.81
2022-11-20T01:16:43.500Z,83.08
2022-11-20T01:19:17.871Z,83.27
2022-11-20T01:21:50.637Z,83.19
2022-11-20T01:24:22.502Z,83.33
2022-11-20T01:26:52.838Z,83.20
2022-11-20T01:29:24.866Z,83.38
2022-11-20T01:31:55.141Z,83.04
2022-11-20T01:34:24.685Z,83.05
2022-11-20T01:36:55.065Z,82.74
2022-11-20T01:39:27.214Z,82.68
2022-11-20T01:42:15.751Z,83.07
2022-11-20T01:44:53.213Z,83.04
2022-11-20T01:47:37.557Z,83.11
2022-11-20T01:50:18.596Z,83.22
2022-11-20T01:52:52.434Z,83.01
2022-11-20T01:55:29.330Z,82.67
2022-11-20T01:57:58.352Z,82.51
2022-11-20T02:00:27.872Z,82.39
2022-11-20T02:03:05.366Z,82.27
2022-11-20T02:05:43.702Z,82.77
2022-11-20T02:08:13.642Z,82.14
2022-11-20T02:10:42.471Z,82.77
2022-11-20T02:13:29.938Z,82.13
2022-11-20T02:15:59.038Z,80.87
2022-11-20T02:18:28.147Z,80.75
2022-11-20T02:21:05.521Z,80.95
2022-11-20T02:24:15.465Z,80.73
2022-11-20T02:27:06.671Z,81.58
2022-11-20T02:29:50.502Z,81.35
2022-11-20T02:32:27.712Z,81.77
2022-11-20T02:34:56.842Z,81.94
2022-11-20T02:37:34.254Z,81.32
2022-11-20T02:40:03.109Z,81.59
2022-11-20T02:42:31.976Z,81.67
2022-11-20T02:45:00.758Z,81.95
2022-11-20T02:47:29.488Z,81.94
2022-11-20T02:49:58.701Z,81.95
2022-11-20T02:52:27.846Z,81.32
2022-11-20T02:54:56.591Z,81.56
2022-11-20T02:57:25.366Z,81.41
2022-11-20T02:59:54.171Z,80.47
2022-11-20T03:02:24.098Z,81.04
2022-11-20T03:04:54.567Z,81.40
2022-11-20T03:07:24.377Z,80.09
2022-11-20T03:09:53.248Z,79.59
2022-11-20T03:12:22.191Z,79.85
2022-11-20T03:14:53.226Z,80.56
2022-11-20T03:17:22.512Z,80.63
2022-11-20T03:19:51.385Z,80.27
2022-11-20T03:22:20.212Z,80.27
2022-11-20T03:24:49.295Z,80.38
2022-11-20T03:27:18.173Z,80.60
2022-11-20T03:29:46.999Z,79.98
2022-11-20T03:32:15.798Z,80.37
2022-11-20T03:34:44.613Z,81.00
2022-11-20T03:37:13.467Z,80.60
2022-11-20T03:39:42.312Z,80.35
2022-11-20T03:42:29.693Z,80.44
2022-11-20T03:44:58.560Z,80.36
2022-11-20T03:47:27.240Z,80.33
2022-11-20T03:49:56.009Z,80.91
2022-11-20T03:52:24.886Z,80.43
2022-11-20T03:54:53.764Z,80.40
2022-11-20T03:57:22.938Z,79.45
2022-11-20T03:59:51.762Z,80.36
2022-11-20T04:02:21.528Z,79.92
2022-11-20T04:04:50.838Z,78.51
2022-11-20T04:07:19.712Z,78.10
2022-11-20T04:09:49.880Z,77.60
2022-11-20T04:12:18.627Z,78.25
2022-11-20T04:14:47.461Z,78.91
2022-11-20T04:17:16.251Z,78.95
2022-11-20T04:19:45.001Z,79.04
2022-11-20T04:22:14.019Z,78.45
2022-11-20T04:24:43.102Z,78.79
2022-11-20T04:27:11.893Z,78.11
2022-11-20T04:29:40.608Z,78.21
2022-11-20T04:32:09.545Z,78.27
2022-11-20T04:34:38.350Z,78.71
2022-11-20T04:37:07.133Z,78.32
2022-11-20T04:39:35.881Z,78.23
2022-11-20T04:42:23.143Z,78.42
2022-11-20T04:44:51.987Z,78.10
2022-11-20T04:47:20.820Z,78.63
2022-11-20T04:49:49.705Z,78.30
2022-11-20T04:52:18.455Z,78.04
2022-11-20T04:54:47.325Z,78.62
2022-11-20T04:57:16.328Z,78.50
2022-11-20T04:59:45.250Z,78.24
2022-11-20T05:02:15.230Z,77.78
2022-11-20T05:04:44.079Z,77.42
2022-11-20T05:07:13.023Z,77.52
2022-11-20T05:09:42.014Z,77.82
2022-11-20T05:12:11.017Z,76.31
2022-11-20T05:14:40.540Z,76.99
2022-11-20T05:17:12.976Z,76.97
2022-11-20T05:19:41.802Z,76.66
2022-11-20T05:22:10.630Z,77.33
2022-11-20T05:24:39.315Z,77.15
2022-11-20T05:27:08.055Z,77.75
2022-11-20T05:29:36.856Z,77.29
2022-11-20T05:32:07.378Z,76.59
2022-11-20T05:34:36.194Z,77.47
2022-11-20T05:37:05.354Z,77.15
2022-11-20T05:39:34.259Z,77.24
2022-11-20T05:42:29.291Z,75.54
2022-11-20T05:45:02.262Z,75.75
2022-11-20T05:47:36.884Z,76.63
2022-11-20T05:50:05.997Z,77.47
2022-11-20T05:52:34.787Z,76.62
2022-11-20T05:55:03.705Z,76.44
2022-11-20T05:57:32.844Z,76.27
2022-11-20T06:00:01.648Z,76.93
2022-11-20T06:02:37.760Z,76.37
2022-11-20T06:05:07.083Z,76.28
2022-11-20T06:07:36.010Z,76.74
2022-11-20T06:10:05.431Z,76.43
2022-11-20T06:12:34.671Z,76.31
2022-11-20T06:15:03.522Z,76.44
2022-11-20T06:17:32.576Z,75.48
2022-11-20T06:20:01.360Z,75.60
2022-11-20T06:22:31.661Z,75.34
2022-11-20T06:25:00.387Z,75.72
2022-11-20T06:27:29.149Z,75.52
2022-11-20T06:29:57.877Z,74.83
2022-11-20T06:32:26.786Z,73.92
2022-11-20T06:34:55.680Z,74.08
2022-11-20T06:37:24.531Z,72.67
2022-11-20T06:39:53.314Z,72.98
2022-11-20T06:42:22.123Z,73.76
2022-11-20T06:44:50.889Z,73.91
2022-11-20T06:47:19.576Z,73.29
2022-11-20T06:49:48.353Z,72.74
2022-11-20T06:52:17.131Z,72.45
2022-11-20T06:54:45.888Z,73.15
2022-11-20T06:57:14.676Z,73.46
2022-11-20T06:59:43.567Z,72.99
2022-11-20T07:02:14.202Z,72.23
2022-11-20T07:04:43.166Z,72.10
2022-11-20T07:07:12.100Z,72.20
2022-11-20T07:09:40.922Z,70.34
2022-11-20T07:12:10.187Z,71.81
2022-11-20T07:14:38.919Z,72.79
2022-11-20T07:17:07.668Z,72.73
2022-11-20T07:19:36.471Z,72.74
2022-11-20T07:22:05.394Z,72.30
2022-11-20T07:24:34.218Z,72.48
2022-11-20T07:27:03.048Z,72.20
2022-11-20T07:29:31.897Z,72.26
2022-11-20T07:32:00.995Z,73.36
2022-11-20T07:34:29.843Z,73.92
2022-11-20T07:36:58.589Z,73.66
2022-11-20T07:39:27.712Z,72.97
2022-11-20T07:41:56.451Z,72.83
2022-11-20T07:44:25.209Z,72.93
2022-11-20T07:46:53.946Z,72.96
2022-11-20T07:49:22.913Z,72.75
2022-11-20T07:52:03.154Z,72.87
2022-11-20T07:54:34.215Z,73.10
2022-11-20T07:57:03.018Z,74.04
2022-11-20T07:59:31.799Z,73.69
2022-11-20T08:02:01.327Z,73.62
2022-11-20T08:04:30.213Z,72.31
2022-11-20T08:06:59.464Z,71.75
2022-11-20T08:09:28.289Z,72.74
2022-11-20T08:12:15.707Z,71.39
2022-11-20T08:14:44.465Z,71.40
2022-11-20T08:17:13.878Z,71.82
2022-11-20T08:19:42.711Z,72.21
2022-11-20T08:22:11.544Z,71.38
2022-11-20T08:24:40.327Z,70.91
2022-11-20T08:27:09.086Z,71.25
2022-11-20T08:29:37.821Z,71.93
2022-11-20T08:32:06.689Z,71.86
2022-11-20T08:34:35.436Z,71.66
2022-11-20T08:37:05.061Z,71.87
2022-11-20T08:39:33.886Z,72.20
2022-11-20T08:42:02.722Z,73.00
2022-11-20T08:44:31.555Z,73.44
2022-11-20T08:47:00.451Z,73.43
2022-11-20T08:49:29.213Z,73.14
2022-11-20T08:51:58.892Z,73.46
2022-11-20T08:54:28.426Z,73.77
2022-11-20T08:56:57.194Z,74.35
2022-11-20T09:00:03.763Z,74.36
2022-11-20T09:02:15.552Z,74.76
2022-11-20T09:04:44.585Z,74.25
2022-11-20T09:07:13.696Z,74.59
2022-11-20T09:09:42.465Z,74.94
2022-11-20T09:12:11.252Z,74.71
2022-11-20T09:14:40.005Z,74.85
2022-11-20T09:17:09.282Z,74.96
2022-11-20T09:19:39.437Z,75.12
2022-11-20T09:22:08.556Z,75.26
2022-11-20T09:24:37.297Z,75.73
2022-11-20T09:27:07.306Z,75.91
2022-11-20T09:29:36.183Z,75.63
2022-11-20T09:32:05.274Z,76.10
2022-11-20T09:34:34.568Z,76.31
2022-11-20T09:37:06.326Z,76.12
2022-11-20T09:39:40.363Z,76.05
2022-11-20T09:42:35.857Z,76.54
2022-11-20T09:45:23.303Z,76.48
2022-11-20T09:48:02.266Z,76.49
2022-11-20T09:50:39.746Z,76.65
2022-11-20T09:53:33.427Z,76.78
2022-11-20T09:56:05.058Z,76.01
2022-11-20T09:58:43.351Z,75.91
2022-11-20T10:01:17.458Z,75.12
2022-11-20T10:03:56.149Z,74.86
2022-11-20T10:06:39.297Z,75.34
2022-11-20T10:09:14.371Z,74.79
2022-11-20T10:11:46.205Z,73.33
2022-11-20T10:14:25.384Z,73.47
2022-11-20T10:17:17.169Z,73.89
2022-11-20T10:19:45.960Z,73.42
2022-11-20T10:22:14.718Z,72.56
2022-11-20T10:24:55.193Z,72.77
2022-11-20T10:27:33.982Z,73.29
2022-11-20T10:30:18.397Z,73.04
2022-11-20T10:33:34.878Z,73.47
2022-11-20T10:36:38.967Z,73.21
2022-11-20T10:39:36.447Z,72.56
2022-11-20T10:42:16.394Z,71.96
2022-11-20T10:45:06.674Z,72.06
2022-11-20T10:47:36.089Z,72.69
2022-11-20T10:50:11.539Z,72.42
2022-11-20T10:52:58.874Z,71.41
2022-11-20T10:55:50.897Z,71.22
2022-11-20T10:58:48.204Z,72.50
2022-11-20T11:01:23.211Z,72.12
2022-11-20T11:03:54.654Z,72.14
2022-11-20T11:06:49.032Z,72.25
2022-11-20T11:09:23.323Z,72.66
2022-11-20T11:11:52.621Z,73.44
2022-11-20T11:14:22.054Z,73.89
2022-11-20T11:16:56.500Z,74.48
2022-11-20T11:19:26.359Z,74.49
2022-11-20T11:21:59.284Z,74.66
2022-11-20T11:24:45.719Z,74.80
2022-11-20T11:27:17.699Z,75.23
2022-11-20T11:29:47.839Z,75.50
2022-11-20T11:32:24.686Z,76.04
2022-11-20T11:35:07.028Z,76.08
2022-11-20T11:37:38.826Z,76.51
2022-11-20T11:40:27.852Z,76.64
2022-11-20T11:43:01.312Z,76.52
2022-11-20T11:45:30.835Z,77.04
2022-11-20T11:48:02.618Z,77.56
2022-11-20T11:50:32.651Z,78.04
2022-11-20T11:53:10.342Z,77.49
2022-11-20T11:56:00.541Z,77.56
2022-11-20T11:58:54.206Z,78.31
2022-11-20T12:01:53.090Z,77.76
2022-11-20T12:04:31.211Z,77.79
2022-11-20T12:07:31.106Z,78.20
2022-11-20T12:09:59.476Z,77.92
2022-11-20T12:12:44.997Z,78.00
2022-11-20T12:15:19.371Z,77.83
2022-11-20T12:17:48.212Z,77.89
2022-11-20T12:20:18.610Z,77.69
2022-11-20T12:23:22.484Z,77.90
2022-11-20T12:25:56.491Z,78.06
2022-11-20T12:28:40.050Z,77.79
2022-11-20T12:31:27.737Z,78.19
2022-11-20T12:34:25.752Z,78.20
2022-11-20T12:37:07.581Z,78.48
2022-11-20T12:39:56.430Z,78.82
2022-11-20T12:42:56.920Z,78.49
2022-11-20T12:45:53.216Z,79.32
2022-11-20T12:48:28.611Z,79.18
2022-11-20T12:51:18.642Z,79.00
2022-11-20T12:54:24.610Z,79.17
2022-11-20T12:57:16.119Z,79.00
2022-11-20T13:00:10.097Z,79.54
2022-11-20T13:02:57.655Z,79.52
2022-11-20T13:05:51.015Z,79.94
2022-11-20T13:08:27.726Z,79.90
2022-11-20T13:10:59.219Z,79.85
2022-11-20T13:14:13.073Z,80.25
2022-11-20T13:16:54.360Z,80.22
2022-11-20T13:19:23.526Z,80.29
2022-11-20T13:21:52.925Z,80.60
2022-11-20T13:24:29.016Z,80.56
2022-11-20T13:27:02.318Z,80.54
2022-11-20T13:29:31.896Z,80.25
2022-11-20T13:32:16.849Z,80.40
2022-11-20T13:35:06.180Z,80.50
2022-11-20T13:37:39.842Z,80.70
2022-11-20T13:40:15.175Z,80.81
2022-11-20T13:43:05.534Z,80.73
2022-11-20T13:45:36.854Z,81.19
2022-11-20T13:48:25.494Z,81.02
2022-11-20T13:51:24.781Z,81.17
2022-11-20T13:54:12.748Z,81.63
2022-11-20T13:57:16.024Z,81.14
2022-11-20T14:00:00.601Z,81.88
2022-11-20T14:02:35.373Z,81.30
2022-11-20T14:05:10.866Z,81.51
2022-11-20T14:07:45.574Z,82.02
2022-11-20T14:10:31.740Z,81.68
2022-11-20T14:13:12.706Z,82.35
2022-11-20T14:15:45.216Z,81.90
2022-11-20T14:18:23.319Z,81.85
2022-11-20T14:20:53.718Z,81.74
2022-11-20T14:23:30.681Z,82.32
2022-11-20T14:25:59.935Z,81.66
2022-11-20T14:28:32.041Z,81.93
2022-11-20T14:31:01.681Z,81.95
2022-11-20T14:33:40.035Z,82.03
2022-11-20T14:36:20.223Z,81.89
2022-11-20T14:38:50.933Z,82.31
2022-11-20T14:41:25.260Z,82.35
2022-11-20T14:44:01.721Z,82.17
2022-11-20T14:46:33.449Z,82.28
2022-11-20T14:49:09.008Z,82.06
2022-11-20T14:51:44.209Z,82.15
2022-11-20T14:54:27.792Z,82.55
2022-11-20T14:57:06.575Z,82.15
2022-11-20T14:59:36.943Z,82.58
2022-11-20T15:02:12.263Z,82.25
2022-11-20T15:04:58.712Z,82.14
2022-11-20T15:07:36.730Z,81.78
2022-11-20T15:10:10.569Z,82.10
2022-11-20T15:13:11.308Z,82.46
2022-11-20T15:15:49.509Z,82.66
2022-11-20T15:18:26.583Z,82.03
2022-11-20T15:20:58.358Z,82.29
2022-11-20T15:23:29.225Z,82.42
2022-11-20T15:25:58.214Z,82.33
2022-11-20T15:28:35.296Z,82.16
2022-11-20T15:31:05.347Z,82.61
2022-11-20T15:33:35.159Z,82.23
2022-11-20T15:36:05.564Z,82.71
2022-11-20T15:38:34.444Z,82.46
2022-11-20T15:41:03.368Z,82.39
2022-11-20T15:43:32.269Z,82.45
2022-11-20T15:46:12.612Z,82.54
2022-11-20T15:48:48.150Z,82.64
2022-11-20T15:51:29.031Z,82.54
2022-11-20T15:53:59.068Z,82.53
2022-11-20T15:56:28.471Z,82.28
2022-11-20T15:58:57.388Z,82.60
2022-11-20T16:01:27.553Z,82.49
2022-11-20T16:03:56.776Z,82.36
2022-11-20T16:06:25.584Z,82.77
2022-11-20T16:08:54.489Z,82.29
2022-11-20T16:11:23.705Z,82.35
2022-11-20T16:14:11.396Z,82.34
2022-11-20T16:16:42.030Z,82.30
2022-11-20T16:19:15.283Z,82.29
2022-11-20T16:21:44.565Z,82.59
2022-11-20T16:24:15.422Z,82.45
2022-11-20T16:26:44.604Z,82.29
2022-11-20T16:29:13.721Z,82.16
2022-11-20T16:31:42.561Z,82.13
2022-11-20T16:34:12.619Z,82.29
2022-11-20T16:36:43.711Z,82.42
2022-11-20T16:39:13.436Z,82.39
2022-11-20T16:41:42.399Z,82.64
2022-11-20T16:44:12.278Z,82.16
2022-11-20T16:46:43.858Z,82.01
2022-11-20T16:49:14.680Z,81.92
2022-11-20T16:51:43.707Z,81.86
2022-11-20T16:54:16.487Z,81.95
2022-11-20T16:56:48.884Z,81.70
2022-11-20T16:59:18.536Z,82.25
2022-11-20T17:01:48.259Z,81.86
2022-11-20T17:04:18.022Z,81.70
2022-11-20T17:06:47.060Z,81.97
2022-11-20T17:09:16.011Z,81.74
2022-11-20T17:11:45.183Z,81.72
2022-11-20T17:14:14.011Z,81.65
2022-11-20T17:16:43.552Z,81.57
2022-11-20T17:19:13.036Z,81.77
2022-11-20T17:21:42.334Z,81.98
2022-11-20T17:24:13.389Z,81.81
2022-11-20T17:26:43.371Z,81.64
2022-11-20T17:29:17.764Z,82.05
2022-11-20T17:31:47.240Z,81.75
2022-11-20T17:34:17.153Z,81.70
2022-11-20T17:36:47.155Z,81.93
2022-11-20T17:39:17.361Z,82.01
2022-11-20T17:42:06.561Z,81.99
2022-11-20T17:44:35.649Z,81.71
2022-11-20T17:47:05.077Z,81.85
2022-11-20T17:49:33.960Z,81.75
2022-11-20T17:52:02.859Z,81.54
2022-11-20T17:54:31.825Z,81.73
2022-11-20T17:57:18.934Z,81.89
2022-11-20T17:59:47.751Z,81.66
2022-11-20T18:02:17.504Z,81.76
2022-11-20T18:04:46.515Z,81.53
2022-11-20T18:07:15.443Z,81.42
2022-11-20T18:09:44.291Z,81.12
2022-11-20T18:12:13.047Z,81.40
2022-11-20T18:14:43.681Z,81.42
2022-11-20T18:17:14.493Z,81.62
2022-11-20T18:20:06.801Z,81.10
2022-11-20T18:22:34.991Z,81.01
2022-11-20T18:25:03.951Z,81.27
2022-11-20T18:27:32.823Z,81.33
2022-11-20T18:30:01.581Z,81.31
2022-11-20T18:32:32.260Z,81.56
2022-11-20T18:35:01.020Z,81.46
2022-11-20T18:37:30.044Z,81.49
2022-11-20T18:39:58.934Z,81.39
2022-11-20T18:42:46.421Z,81.41
2022-11-20T18:45:15.701Z,81.44
2022-11-20T18:47:44.759Z,81.48
2022-11-20T18:50:13.781Z,81.68
2022-11-20T18:52:45.185Z,81.42
2022-11-20T18:55:14.202Z,81.30
2022-11-20T18:57:43.109Z,81.31
2022-11-20T19:00:13.593Z,81.35
2022-11-20T19:02:43.540Z,81.46
2022-11-20T19:05:14.778Z,81.18
2022-11-20T19:07:44.039Z,81.27
2022-11-20T19:10:13.170Z,81.04
2022-11-20T19:12:41.933Z,81.38
2022-11-20T19:15:11.080Z,81.24
2022-11-20T19:17:39.832Z,81.10
2022-11-20T19:20:08.982Z,81.56
2022-11-20T19:22:38.008Z,81.46
2022-11-20T19:25:07.371Z,81.37
2022-11-20T19:27:36.263Z,81.44
2022-11-20T19:30:05.477Z,81.23
2022-11-20T19:32:35.968Z,81.89
2022-11-20T19:35:05.419Z,81.50
2022-11-20T19:37:35.103Z,81.43
2022-11-20T19:40:05.891Z,81.82
2022-11-20T19:42:34.906Z,81.46
2022-11-20T19:45:04.101Z,81.41
2022-11-20T19:48:00.717Z,81.67
2022-11-20T19:50:21.693Z,81.59
2022-11-20T19:52:53.128Z,81.49
2022-11-20T19:55:26.359Z,81.56
2022-11-20T19:57:55.683Z,81.59
2022-11-20T20:00:31.133Z,81.33
2022-11-20T20:03:02.468Z,81.82
2022-11-20T20:05:31.279Z,81.64
2022-11-20T20:08:00.351Z,81.54
2022-11-20T20:10:29.527Z,81.57
2022-11-20T20:12:58.378Z,81.78
2022-11-20T20:15:27.339Z,81.50
2022-11-20T20:17:56.247Z,81.27
2022-11-20T20:20:25.362Z,81.63
2022-11-20T20:22:54.393Z,81.99
2022-11-20T20:25:23.423Z,81.54
2022-11-20T20:27:52.250Z,81.57
2022-11-20T20:30:21.056Z,81.32
2022-11-20T20:32:55.882Z,81.71
2022-11-20T20:35:25.452Z,81.50
2022-11-20T20:37:54.231Z,81.55
2022-11-20T20:40:23.241Z,81.75
2022-11-20T20:42:52.152Z,81.29
2022-11-20T20:45:21.130Z,81.72
2022-11-20T20:47:49.972Z,81.42
2022-11-20T20:50:18.978Z,81.60
2022-11-20T20:52:47.751Z,81.72
2022-11-20T20:55:16.605Z,81.64
2022-11-20T20:57:45.600Z,81.48
2022-11-20T21:00:15.590Z,81.88
2022-11-20T21:02:44.625Z,81.44
2022-11-20T21:05:13.568Z,81.56
2022-11-20T21:08:02.291Z,81.24
2022-11-20T21:10:31.835Z,80.80
2022-11-20T21:13:00.595Z,80.97
2022-11-20T21:15:29.382Z,80.43
2022-11-20T21:17:58.372Z,80.54
2022-11-20T21:20:46.228Z,80.11
2022-11-20T21:23:15.108Z,80.01
2022-11-20T21:25:44.015Z,79.96
2022-11-20T21:28:17.878Z,80.11
2022-11-20T21:30:48.398Z,80.37
2022-11-20T21:33:17.493Z,80.05
2022-11-20T21:35:46.288Z,79.62
2022-11-20T21:38:16.012Z,79.77
2022-11-20T21:40:44.832Z,79.40
2022-11-20T21:43:13.617Z,79.17
2022-11-20T21:45:42.394Z,78.43
2022-11-20T21:48:11.149Z,78.26
2022-11-20T21:50:40.044Z,77.95
2022-11-20T21:53:09.493Z,77.44
2022-11-20T21:55:38.232Z,77.39
2022-11-20T21:58:07.072Z,77.27
2022-11-20T22:00:36.483Z,77.22
2022-11-20T22:03:05.615Z,76.67
2022-11-20T22:05:34.363Z,76.90
2022-11-20T22:08:03.231Z,76.49
2022-11-20T22:10:32.525Z,76.31
2022-11-20T22:13:27.545Z,76.44
2022-11-20T22:16:02.509Z,76.77
2022-11-20T22:18:31.281Z,76.41
2022-11-20T22:21:05.976Z,76.58
2022-11-20T22:23:35.504Z,76.67
2022-11-20T22:26:13.616Z,77.16
2022-11-20T22:28:43.259Z,77.33
2022-11-20T22:31:12.358Z,77.08
2022-11-20T22:33:41.560Z,77.27
2022-11-20T22:36:13.334Z,77.55
2022-11-20T22:38:42.357Z,77.48
2022-11-20T22:41:19.435Z,77.43
2022-11-20T22:43:48.819Z,77.07
2022-11-20T22:46:21.188Z,77.15
2022-11-20T22:48:52.791Z,77.50
2022-11-20T22:51:24.239Z,77.42
2022-11-20T22:53:53.186Z,77.26
2022-11-20T22:56:23.862Z,77.03
2022-11-20T22:58:54.367Z,77.16
2022-11-20T23:01:27.138Z,76.94
2022-11-20T23:04:01.750Z,76.85
2022-11-20T23:06:31.414Z,76.83
2022-11-20T23:09:00.210Z,76.66
2022-11-20T23:11:30.800Z,76.70
2022-11-20T23:14:08.498Z,76.61
2022-11-20T23:16:37.341Z,76.14
2022-11-20T23:19:08.858Z,76.35
2022-11-20T23:21:39.954Z,76.44
2022-11-20T23:24:09.844Z,76.13
2022-11-20T23:26:41.371Z,75.75
2022-11-20T23:29:10.203Z,76.07
2022-11-20T23:31:39.050Z,76.00
2022-11-20T23:34:07.817Z,76.09
2022-11-20T23:36:36.633Z,76.29
2022-11-20T23:39:05.418Z,75.88
2022-11-20T23:41:34.170Z,75.80
2022-11-20T23:44:03.031Z,75.78
2022-11-20T23:46:31.807Z,75.61
2022-11-20T23:49:00.577Z,75.44
2022-11-20T23:51:29.458Z,75.51
2022-11-20T23:54:03.260Z,75.46
2022-11-20T23:56:33.528Z,75.26
2022-11-20T23:59:02.378Z,75.78
